Wes Monica — V2GN6 — position and weather

sailwx.info

Track history (hours):
 
Tides and Currents Weather Stations Pressure Air Temp Water Temp Dewpoint Dewpoint Depression Visibility Wind Speed Wind Dir Waves Ship Positions

Wes Monica

Last reported at 2018-Jan-11 02:38 UTC. Time now 2018-Jan-18 14:15 UTC.
Position N 36°03' W 004°25'.

Length 108 m; draft 7.1 m.

Type: Cargo ship. MMSI: 304014000.

Date/timePositionNaut miles runAvg speedWind from/ knotsBaromVisibWave heightAir tempDewpointWater temp
2018-Jan-11 02:38N 36°03' W 004°25'510.9
2018-Jan-11 02:10N 36°02' W 004°31'211.9
2018-Jan-11 01:58N 36°02' W 004°34'510.9
2018-Jan-11 01:30N 36°01' W 004°40'611.1
2018-Jan-11 01:00N 35°60' W 004°47'610.7
2018-Jan-11 00:26N 35°58' W 004°54'410.2
2018-Jan-11 00:00N 35°57' W 004°59'510.8
2018-Jan-10 23:30N 35°57' W 005°06'611.5
2018-Jan-10 23:00N 35°56' W 005°13'4 8.8
2018-Jan-10 22:30N 35°55' W 005°18'1 2.4
2018-Jan-10 21:58N 35°54' W 005°19'0 0.0
2018-Jan-10 21:28N 35°54' W 005°19'0 0.0
2018-Jan-10 20:59N 35°54' W 005°19'0 0.0
2018-Jan-10 20:28N 35°54' W 005°19'0 0.0
2018-Jan-10 19:58N 35°54' W 005°19'0 0.0
2018-Jan-10 19:28N 35°54' W 005°19'0 0.0
2018-Jan-10 18:58N 35°54' W 005°19'0 0.0
2018-Jan-10 18:28N 35°54' W 005°19'1 1.2
2018-Jan-10 18:00N 35°54' W 005°19'1 1.9
2018-Jan-10 17:31N 35°55' W 005°19'2 4.0
2018-Jan-10 17:01N 35°56' W 005°21'510.7
2018-Jan-10 16:30N 35°57' W 005°27'713.9
2018-Jan-10 15:58N 35°55' W 005°36'511.4
2018-Jan-10 15:30N 35°55' W 005°43'611.1
2018-Jan-10 15:00N 35°54' W 005°49'611.3
2018-Jan-10 14:28N 35°54' W 005°57'611.8
2018-Jan-10 14:00N 35°54' W 006°04'238 8.2
2018-Jan-09 09:05N 38°20' W 009°59'1 9.0
2018-Jan-09 09:00N 38°21' W 009°59'5 9.2
2018-Jan-09 08:30N 38°25' W 010°01'5 9.1
2018-Jan-09 08:00N 38°29' W 010°02'5 8.9
2018-Jan-09 07:29N 38°34' W 010°03'4 9.1
2018-Jan-09 07:00N 38°38' W 010°04'5 9.2
2018-Jan-09 06:29N 38°43' W 010°05'4 8.8
2018-Jan-09 06:00N 38°47' W 010°05'5 8.8
2018-Jan-09 05:28N 38°52' W 010°05'4 8.7
2018-Jan-09 05:00N 38°56' W 010°05'4 8.8
2018-Jan-09 04:30N 39°00' W 010°05'4 9.0
2018-Jan-09 04:00N 39°05' W 010°05'5 9.0
2018-Jan-09 03:30N 39°09' W 010°05'5 9.3
2018-Jan-09 03:00N 39°14' W 010°05'  
2018-Jan-05 22:27N 49°47' W 003°49'3 6.3
2018-Jan-05 22:00N 49°49' W 003°46'3 5.9
2018-Jan-05 21:31N 49°50' W 003°42'3 5.6
2018-Jan-05 20:58N 49°52' W 003°38'2 4.9
2018-Jan-05 20:31N 49°53' W 003°35'2 4.7
2018-Jan-05 20:01N 49°55' W 003°33'2 4.7
2018-Jan-05 19:31N 49°56' W 003°30'3 5.3
2018-Jan-05 19:00N 49°58' W 003°27'3 6.0
2018-Jan-05 18:31N 49°59' W 003°23'3 6.4
2018-Jan-05 18:01N 50°01' W 003°19'4 7.0
2018-Jan-05 17:30N 50°03' W 003°14'4 8.1
2018-Jan-05 17:00N 50°06' W 003°09'4 9.0
2018-Jan-05 16:31N 50°08' W 003°04'510.5
2018-Jan-05 16:00N 50°11' W 002°57'610.8
2018-Jan-05 15:24N 50°15' W 002°48'510.0
2018-Jan-05 14:53N 50°18' W 002°41'410.0
2018-Jan-05 14:30N 50°19' W 002°36'8 9.2
2018-Jan-05 13:36N 50°23' W 002°24'1 8.4
2018-Jan-05 13:30N 50°23' W 002°23'13 6.3
2018-Jan-05 11:25N 50°29' W 002°04'2 4.2
2018-Jan-05 11:00N 50°29' W 002°02'2 3.5
2018-Jan-05 10:31N 50°30' W 001°60'2 3.3
2018-Jan-05 10:00N 50°31' W 001°58'2 3.3
2018-Jan-05 09:30N 50°33' W 001°56'2 3.5
2018-Jan-05 09:00N 50°34' W 001°54'2 4.0
2018-Jan-05 08:30N 50°35' W 001°52'2 4.4
2018-Jan-05 08:00N 50°37' W 001°50'3 6.1
2018-Jan-05 07:30N 50°40' W 001°50'0 0.3
2018-Jan-05 06:58N 50°40' W 001°50'0 0.0
2018-Jan-05 06:28N 50°40' W 001°50'0 0.0
2018-Jan-05 05:58N 50°40' W 001°50'0 0.2
2018-Jan-05 05:19N 50°40' W 001°50'0 0.1
2018-Jan-05 04:58N 50°40' W 001°50'0 0.1
2018-Jan-05 04:28N 50°40' W 001°50'0 0.0
2018-Jan-05 03:58N 50°40' W 001°50'0 0.0
2018-Jan-05 03:28N 50°40' W 001°50'0 0.0
2018-Jan-05 02:58N 50°40' W 001°50'0 0.0
2018-Jan-05 02:28N 50°40' W 001°50'0 0.2
2018-Jan-05 01:34N 50°40' W 001°50'0 0.2
2018-Jan-05 01:28N 50°40' W 001°50'0 0.1
2018-Jan-05 00:58N 50°40' W 001°50'0 0.0
2018-Jan-05 00:28N 50°40' W 001°50'0 0.0
2018-Jan-04 23:58N 50°40' W 001°50'0 0.0
2018-Jan-04 23:28N 50°40' W 001°50'0 0.0
2018-Jan-04 22:58N 50°40' W 001°50'0 0.0
2018-Jan-04 22:28N 50°40' W 001°50'0 0.0
2018-Jan-04 21:52N 50°40' W 001°50'0 0.1
2018-Jan-04 21:28N 50°40' W 001°50'0 0.0
2018-Jan-04 20:58N 50°40' W 001°50'0 0.0
2018-Jan-04 20:22N 50°40' W 001°50'0 0.0
2018-Jan-04 19:58N 50°40' W 001°50'0 0.0
2018-Jan-04 19:28N 50°40' W 001°50'0 0.0
2018-Jan-04 18:58N 50°40' W 001°50'0 0.0
2018-Jan-04 18:28N 50°40' W 001°50'0 0.0
2018-Jan-04 17:52N 50°40' W 001°50'0 0.3
2018-Jan-04 17:28N 50°40' W 001°50'0 0.2
2018-Jan-04 16:58N 50°40' W 001°50'0 0.4
2018-Jan-04 16:30N 50°40' W 001°50'3 6.6
2018-Jan-04 16:00N 50°38' W 001°46'5 8.1
2018-Jan-04 15:26N 50°35' W 001°40'8 7.1
2018-Jan-04 14:15N 50°33' W 001°27'5 6.4
2018-Jan-04 13:26N 50°32' W 001°19'3 5.3
2018-Jan-04 12:55N 50°31' W 001°15'2 4.1
2018-Jan-04 12:28N 50°31' W 001°12'1 3.2
2018-Jan-04 12:01N 50°31' W 001°09'1 2.7
2018-Jan-04 11:28N 50°32' W 001°07'1 2.0
2018-Jan-04 11:00N 50°32' W 001°06'1 1.7
2018-Jan-04 10:30N 50°32' W 001°04'1 1.6
2018-Jan-04 10:00N 50°32' W 001°03'1 1.5
2018-Jan-04 09:30N 50°32' W 001°02'1 1.5
2018-Jan-04 08:59N 50°32' W 001°01'8 3.4
2018-Jan-04 06:45N 50°30' W 000°49'2 7.9
2018-Jan-04 06:30N 50°30' W 000°46'5 9.3
2018-Jan-04 06:00N 50°30' W 000°39'510.7
2018-Jan-04 05:30N 50°31' W 000°31'611.4
2018-Jan-04 05:00N 50°31' W 000°22'611.4
2018-Jan-04 04:30N 50°31' W 000°13'611.3
2018-Jan-04 04:00N 50°31' W 000°04'611.1
2018-Jan-04 03:31N 50°33' E 000°05'510.4
2018-Jan-04 03:00N 50°34' E 000°13'10 8.5
2018-Jan-04 01:49N 50°37' E 000°28'3 7.3
2018-Jan-04 01:28N 50°38' E 000°32'3 6.6
2018-Jan-04 00:58N 50°39' E 000°37'3 5.6
2018-Jan-04 00:29N 50°40' E 000°40'3 5.4
2018-Jan-04 00:01N 50°42' E 000°44'3 5.5
2018-Jan-03 23:31N 50°44' E 000°47'3 5.2
2018-Jan-03 23:01N 50°45' E 000°50'3 5.1
2018-Jan-03 22:29N 50°47' E 000°54'3 5.5
2018-Jan-03 22:00N 50°48' E 000°57'5 6.2
2018-Jan-03 21:12N 50°51' E 001°03'1 6.5
2018-Jan-03 20:58N 50°52' E 001°05'4 7.6
2018-Jan-03 20:30N 50°55' E 001°10'4 8.5
2018-Jan-03 20:00N 50°58' E 001°14'4 8.8
2018-Jan-03 19:30N 51°00' E 001°20'5 9.1
2018-Jan-03 19:01N 51°03' E 001°25'5 9.0
2018-Jan-03 18:31N 51°06' E 001°31'4 8.6
2018-Jan-03 18:00N 51°09' E 001°36'4 8.1
2018-Jan-03 17:30N 51°11' E 001°41'4 8.1
2018-Jan-03 17:00N 51°14' E 001°46'3 6.9
2018-Jan-03 16:30N 51°17' E 001°48'3 5.9
2018-Jan-03 16:00N 51°20' E 001°51'2 4.9
2018-Jan-03 15:30N 51°22' E 001°52'2 4.4
2018-Jan-03 15:00N 51°24' E 001°54'2 3.9
2018-Jan-03 14:30N 51°26' E 001°55'2 3.5
2018-Jan-03 14:00N 51°27' E 001°57'1 2.8
2018-Jan-03 13:30N 51°28' E 001°58'1 1.9
2018-Jan-03 13:01N 51°29' E 001°59'1 2.0
2018-Jan-03 12:31N 51°30' E 002°00'1 1.9
2018-Jan-03 12:00N 51°30' E 002°01'1 1.9
2018-Jan-03 11:30N 51°31' E 002°03'1 2.3
2018-Jan-03 11:01N 51°31' E 002°04'2 3.0
2018-Jan-03 10:30N 51°32' E 002°06'2 3.9
2018-Jan-03 10:00N 51°34' E 002°08'2 4.0
2018-Jan-03 09:30N 51°35' E 002°10'2 4.5
2018-Jan-03 09:00N 51°37' E 002°12'74 5.1
2018-Jan-02 18:30N 52°35' E 003°28'3 6.7
2018-Jan-02 17:59N 52°38' E 003°31'3 6.6
2018-Jan-02 17:30N 52°41' E 003°34'3 6.5
2018-Jan-02 17:00N 52°43' E 003°37'65 7.6
2018-Jan-02 08:30N 53°31' E 004°49'5 8.0
2018-Jan-02 07:54N 53°33' E 004°57'3 7.9
2018-Jan-02 07:28N 53°34' E 005°02'99 7.6
2018-Jan-01 18:30N 54°02' E 007°43'3 6.1
2018-Jan-01 18:00N 54°02' E 007°48'3 6.7
2018-Jan-01 17:30N 54°02' E 007°54'21 8.5
2018-Jan-01 15:00N 53°59' E 008°29'612.0
2018-Jan-01 14:30N 53°57' E 008°39'612.6
2018-Jan-01 14:01N 53°51' E 008°45'510.2
2018-Jan-01 13:30N 53°51' E 008°53'5 9.2
2018-Jan-01 13:01N 53°52' E 009°01'8 7.5
2018-Jan-01 12:01N 53°53' E 009°14'3 6.7
2018-Jan-01 11:30N 53°51' E 009°19'4 7.2
2018-Jan-01 11:00N 53°48' E 009°22'4 7.0
2018-Jan-01 10:30N 53°45' E 009°25'3 6.5
2018-Jan-01 10:01N 53°43' E 009°29'3 7.0
2018-Jan-01 09:31N 53°40' E 009°31'8 7.6
2018-Jan-01 08:31N 53°34' E 009°40'510.1
2018-Jan-01 08:00N 53°33' E 009°48'5 9.4
2018-Jan-01 07:31N 53°32' E 009°56'2 4.5
2018-Jan-01 06:58N 53°30' E 009°58'0 0.0
2018-Jan-01 05:58N 53°30' E 009°58'0 0.0
2018-Jan-01 05:28N 53°30' E 009°58'0 0.0
2018-Jan-01 04:58N 53°30' E 009°58'0 0.0
2018-Jan-01 03:58N 53°30' E 009°58'0 0.0
2018-Jan-01 03:28N 53°30' E 009°58'0 0.0
2018-Jan-01 02:58N 53°30' E 009°58'  
Track history (hours):
 
Tides and Currents Weather Stations Pressure Air Temp Water Temp Dewpoint Dewpoint Depression Visibility Wind Speed Wind Dir Waves Ship Positions

Wes Monica

Last reported at 2018-Jan-11 02:38 UTC. Time now 2018-Jan-18 14:15 UTC.
Position N 36°03' W 004°25'.

Length 108 m; draft 7.1 m.

Type: Cargo ship. MMSI: 304014000.

Date/timePositionNaut miles runAvg speedWind from/ knotsBaromVisibWave heightAir tempDewpointWater temp
2018-Jan-11 02:38N 36°03' W 004°25'510.9
2018-Jan-11 02:10N 36°02' W 004°31'211.9
2018-Jan-11 01:58N 36°02' W 004°34'510.9
2018-Jan-11 01:30N 36°01' W 004°40'611.1
2018-Jan-11 01:00N 35°60' W 004°47'610.7
2018-Jan-11 00:26N 35°58' W 004°54'410.2
2018-Jan-11 00:00N 35°57' W 004°59'510.8
2018-Jan-10 23:30N 35°57' W 005°06'611.5
2018-Jan-10 23:00N 35°56' W 005°13'4 8.8
2018-Jan-10 22:30N 35°55' W 005°18'1 2.4
2018-Jan-10 21:58N 35°54' W 005°19'0 0.0
2018-Jan-10 21:28N 35°54' W 005°19'0 0.0
2018-Jan-10 20:59N 35°54' W 005°19'0 0.0
2018-Jan-10 20:28N 35°54' W 005°19'0 0.0
2018-Jan-10 19:58N 35°54' W 005°19'0 0.0
2018-Jan-10 19:28N 35°54' W 005°19'0 0.0
2018-Jan-10 18:58N 35°54' W 005°19'0 0.0
2018-Jan-10 18:28N 35°54' W 005°19'1 1.2
2018-Jan-10 18:00N 35°54' W 005°19'1 1.9
2018-Jan-10 17:31N 35°55' W 005°19'2 4.0
2018-Jan-10 17:01N 35°56' W 005°21'510.7
2018-Jan-10 16:30N 35°57' W 005°27'713.9
2018-Jan-10 15:58N 35°55' W 005°36'511.4
2018-Jan-10 15:30N 35°55' W 005°43'611.1
2018-Jan-10 15:00N 35°54' W 005°49'611.3
2018-Jan-10 14:28N 35°54' W 005°57'611.8
2018-Jan-10 14:00N 35°54' W 006°04'238 8.2
2018-Jan-09 09:05N 38°20' W 009°59'1 9.0
2018-Jan-09 09:00N 38°21' W 009°59'5 9.2
2018-Jan-09 08:30N 38°25' W 010°01'5 9.1
2018-Jan-09 08:00N 38°29' W 010°02'5 8.9
2018-Jan-09 07:29N 38°34' W 010°03'4 9.1
2018-Jan-09 07:00N 38°38' W 010°04'5 9.2
2018-Jan-09 06:29N 38°43' W 010°05'4 8.8
2018-Jan-09 06:00N 38°47' W 010°05'5 8.8
2018-Jan-09 05:28N 38°52' W 010°05'4 8.7
2018-Jan-09 05:00N 38°56' W 010°05'4 8.8
2018-Jan-09 04:30N 39°00' W 010°05'4 9.0
2018-Jan-09 04:00N 39°05' W 010°05'5 9.0
2018-Jan-09 03:30N 39°09' W 010°05'5 9.3
2018-Jan-09 03:00N 39°14' W 010°05'  
2018-Jan-05 22:27N 49°47' W 003°49'3 6.3
2018-Jan-05 22:00N 49°49' W 003°46'3 5.9
2018-Jan-05 21:31N 49°50' W 003°42'3 5.6
2018-Jan-05 20:58N 49°52' W 003°38'2 4.9
2018-Jan-05 20:31N 49°53' W 003°35'2 4.7
2018-Jan-05 20:01N 49°55' W 003°33'2 4.7
2018-Jan-05 19:31N 49°56' W 003°30'3 5.3
2018-Jan-05 19:00N 49°58' W 003°27'3 6.0
2018-Jan-05 18:31N 49°59' W 003°23'3 6.4
2018-Jan-05 18:01N 50°01' W 003°19'4 7.0
2018-Jan-05 17:30N 50°03' W 003°14'4 8.1
2018-Jan-05 17:00N 50°06' W 003°09'4 9.0
2018-Jan-05 16:31N 50°08' W 003°04'510.5
2018-Jan-05 16:00N 50°11' W 002°57'610.8
2018-Jan-05 15:24N 50°15' W 002°48'510.0
2018-Jan-05 14:53N 50°18' W 002°41'410.0
2018-Jan-05 14:30N 50°19' W 002°36'8 9.2
2018-Jan-05 13:36N 50°23' W 002°24'1 8.4
2018-Jan-05 13:30N 50°23' W 002°23'13 6.3
2018-Jan-05 11:25N 50°29' W 002°04'2 4.2
2018-Jan-05 11:00N 50°29' W 002°02'2 3.5
2018-Jan-05 10:31N 50°30' W 001°60'2 3.3
2018-Jan-05 10:00N 50°31' W 001°58'2 3.3
2018-Jan-05 09:30N 50°33' W 001°56'2 3.5
2018-Jan-05 09:00N 50°34' W 001°54'2 4.0
2018-Jan-05 08:30N 50°35' W 001°52'2 4.4
2018-Jan-05 08:00N 50°37' W 001°50'3 6.1
2018-Jan-05 07:30N 50°40' W 001°50'0 0.3
2018-Jan-05 06:58N 50°40' W 001°50'0 0.0
2018-Jan-05 06:28N 50°40' W 001°50'0 0.0
2018-Jan-05 05:58N 50°40' W 001°50'0 0.2
2018-Jan-05 05:19N 50°40' W 001°50'0 0.1
2018-Jan-05 04:58N 50°40' W 001°50'0 0.1
2018-Jan-05 04:28N 50°40' W 001°50'0 0.0
2018-Jan-05 03:58N 50°40' W 001°50'0 0.0
2018-Jan-05 03:28N 50°40' W 001°50'0 0.0
2018-Jan-05 02:58N 50°40' W 001°50'0 0.0
2018-Jan-05 02:28N 50°40' W 001°50'0 0.2
2018-Jan-05 01:34N 50°40' W 001°50'0 0.2
2018-Jan-05 01:28N 50°40' W 001°50'0 0.1
2018-Jan-05 00:58N 50°40' W 001°50'0 0.0
2018-Jan-05 00:28N 50°40' W 001°50'0 0.0
2018-Jan-04 23:58N 50°40' W 001°50'0 0.0
2018-Jan-04 23:28N 50°40' W 001°50'0 0.0
2018-Jan-04 22:58N 50°40' W 001°50'0 0.0
2018-Jan-04 22:28N 50°40' W 001°50'0 0.0
2018-Jan-04 21:52N 50°40' W 001°50'0 0.1
2018-Jan-04 21:28N 50°40' W 001°50'0 0.0
2018-Jan-04 20:58N 50°40' W 001°50'0 0.0
2018-Jan-04 20:22N 50°40' W 001°50'0 0.0
2018-Jan-04 19:58N 50°40' W 001°50'0 0.0
2018-Jan-04 19:28N 50°40' W 001°50'0 0.0
2018-Jan-04 18:58N 50°40' W 001°50'0 0.0
2018-Jan-04 18:28N 50°40' W 001°50'0 0.0
2018-Jan-04 17:52N 50°40' W 001°50'0 0.3
2018-Jan-04 17:28N 50°40' W 001°50'0 0.2
2018-Jan-04 16:58N 50°40' W 001°50'0 0.4
2018-Jan-04 16:30N 50°40' W 001°50'3 6.6
2018-Jan-04 16:00N 50°38' W 001°46'5 8.1
2018-Jan-04 15:26N 50°35' W 001°40'8 7.1
2018-Jan-04 14:15N 50°33' W 001°27'5 6.4
2018-Jan-04 13:26N 50°32' W 001°19'3 5.3
2018-Jan-04 12:55N 50°31' W 001°15'2 4.1
2018-Jan-04 12:28N 50°31' W 001°12'1 3.2
2018-Jan-04 12:01N 50°31' W 001°09'1 2.7
2018-Jan-04 11:28N 50°32' W 001°07'1 2.0
2018-Jan-04 11:00N 50°32' W 001°06'1 1.7
2018-Jan-04 10:30N 50°32' W 001°04'1 1.6
2018-Jan-04 10:00N 50°32' W 001°03'1 1.5
2018-Jan-04 09:30N 50°32' W 001°02'1 1.5
2018-Jan-04 08:59N 50°32' W 001°01'8 3.4
2018-Jan-04 06:45N 50°30' W 000°49'2 7.9
2018-Jan-04 06:30N 50°30' W 000°46'5 9.3
2018-Jan-04 06:00N 50°30' W 000°39'510.7
2018-Jan-04 05:30N 50°31' W 000°31'611.4
2018-Jan-04 05:00N 50°31' W 000°22'611.4
2018-Jan-04 04:30N 50°31' W 000°13'611.3
2018-Jan-04 04:00N 50°31' W 000°04'611.1
2018-Jan-04 03:31N 50°33' E 000°05'510.4
2018-Jan-04 03:00N 50°34' E 000°13'10 8.5
2018-Jan-04 01:49N 50°37' E 000°28'3 7.3
2018-Jan-04 01:28N 50°38' E 000°32'3 6.6
2018-Jan-04 00:58N 50°39' E 000°37'3 5.6
2018-Jan-04 00:29N 50°40' E 000°40'3 5.4
2018-Jan-04 00:01N 50°42' E 000°44'3 5.5
2018-Jan-03 23:31N 50°44' E 000°47'3 5.2
2018-Jan-03 23:01N 50°45' E 000°50'3 5.1
2018-Jan-03 22:29N 50°47' E 000°54'3 5.5
2018-Jan-03 22:00N 50°48' E 000°57'5 6.2
2018-Jan-03 21:12N 50°51' E 001°03'1 6.5
2018-Jan-03 20:58N 50°52' E 001°05'4 7.6
2018-Jan-03 20:30N 50°55' E 001°10'4 8.5
2018-Jan-03 20:00N 50°58' E 001°14'4 8.8
2018-Jan-03 19:30N 51°00' E 001°20'5 9.1
2018-Jan-03 19:01N 51°03' E 001°25'5 9.0
2018-Jan-03 18:31N 51°06' E 001°31'4 8.6
2018-Jan-03 18:00N 51°09' E 001°36'4 8.1
2018-Jan-03 17:30N 51°11' E 001°41'4 8.1
2018-Jan-03 17:00N 51°14' E 001°46'3 6.9
2018-Jan-03 16:30N 51°17' E 001°48'3 5.9
2018-Jan-03 16:00N 51°20' E 001°51'2 4.9
2018-Jan-03 15:30N 51°22' E 001°52'2 4.4
2018-Jan-03 15:00N 51°24' E 001°54'2 3.9
2018-Jan-03 14:30N 51°26' E 001°55'2 3.5
2018-Jan-03 14:00N 51°27' E 001°57'1 2.8
2018-Jan-03 13:30N 51°28' E 001°58'1 1.9
2018-Jan-03 13:01N 51°29' E 001°59'1 2.0
2018-Jan-03 12:31N 51°30' E 002°00'1 1.9
2018-Jan-03 12:00N 51°30' E 002°01'1 1.9
2018-Jan-03 11:30N 51°31' E 002°03'1 2.3
2018-Jan-03 11:01N 51°31' E 002°04'2 3.0
2018-Jan-03 10:30N 51°32' E 002°06'2 3.9
2018-Jan-03 10:00N 51°34' E 002°08'2 4.0
2018-Jan-03 09:30N 51°35' E 002°10'2 4.5
2018-Jan-03 09:00N 51°37' E 002°12'74 5.1
2018-Jan-02 18:30N 52°35' E 003°28'3 6.7
2018-Jan-02 17:59N 52°38' E 003°31'3 6.6
2018-Jan-02 17:30N 52°41' E 003°34'3 6.5
2018-Jan-02 17:00N 52°43' E 003°37'65 7.6
2018-Jan-02 08:30N 53°31' E 004°49'5 8.0
2018-Jan-02 07:54N 53°33' E 004°57'3 7.9
2018-Jan-02 07:28N 53°34' E 005°02'99 7.6
2018-Jan-01 18:30N 54°02' E 007°43'3 6.1
2018-Jan-01 18:00N 54°02' E 007°48'3 6.7
2018-Jan-01 17:30N 54°02' E 007°54'21 8.5
2018-Jan-01 15:00N 53°59' E 008°29'612.0
2018-Jan-01 14:30N 53°57' E 008°39'612.6
2018-Jan-01 14:01N 53°51' E 008°45'510.2
2018-Jan-01 13:30N 53°51' E 008°53'5 9.2
2018-Jan-01 13:01N 53°52' E 009°01'8 7.5
2018-Jan-01 12:01N 53°53' E 009°14'3 6.7
2018-Jan-01 11:30N 53°51' E 009°19'4 7.2
2018-Jan-01 11:00N 53°48' E 009°22'4 7.0
2018-Jan-01 10:30N 53°45' E 009°25'3 6.5
2018-Jan-01 10:01N 53°43' E 009°29'3 7.0
2018-Jan-01 09:31N 53°40' E 009°31'8 7.6
2018-Jan-01 08:31N 53°34' E 009°40'510.1
2018-Jan-01 08:00N 53°33' E 009°48'5 9.4
2018-Jan-01 07:31N 53°32' E 009°56'2 4.5
2018-Jan-01 06:58N 53°30' E 009°58'0 0.0
2018-Jan-01 05:58N 53°30' E 009°58'0 0.0
2018-Jan-01 05:28N 53°30' E 009°58'0 0.0
2018-Jan-01 04:58N 53°30' E 009°58'0 0.0
2018-Jan-01 03:58N 53°30' E 009°58'0 0.0
2018-Jan-01 03:28N 53°30' E 009°58'0 0.0
2018-Jan-01 02:58N 53°30' E 009°58'  

Dump ship's entire track history